createdAt,value
2017-09-04T00:00:55.260Z,86.6
2017-09-04T00:01:56.797Z,86.6
2017-09-04T00:02:58.301Z,86.9
2017-09-04T00:03:59.890Z,86.6
2017-09-04T00:05:01.416Z,86.7
2017-09-04T00:06:03.030Z,87.2
2017-09-04T00:07:04.588Z,87.2
2017-09-04T00:08:06.173Z,87.0
2017-09-04T00:09:07.713Z,86.8
2017-09-04T00:10:09.241Z,86.8
2017-09-04T00:11:10.802Z,86.9
2017-09-04T00:12:12.393Z,87.2
2017-09-04T00:13:13.881Z,87.5
2017-09-04T00:14:15.446Z,87.1
2017-09-04T00:15:17.060Z,87.3
2017-09-04T00:16:18.681Z,87.3
2017-09-04T00:17:20.157Z,87.2
2017-09-04T00:18:21.744Z,87.4
2017-09-04T00:19:23.652Z,87.2
2017-09-04T00:20:25.214Z,87.7
2017-09-04T00:21:26.752Z,87.1
2017-09-04T00:22:28.362Z,87.2
2017-09-04T00:23:29.923Z,87.1
2017-09-04T00:24:31.455Z,87.6
2017-09-04T00:25:32.998Z,87.4
2017-09-04T00:26:34.547Z,87.5
2017-09-04T00:27:36.080Z,87.5
2017-09-04T00:28:37.899Z,87.6
2017-09-04T00:29:39.376Z,87.6
2017-09-04T00:30:40.922Z,87.7
2017-09-04T00:31:42.470Z,87.5
2017-09-04T00:32:43.984Z,87.9
2017-09-04T00:33:45.481Z,87.4
2017-09-04T00:34:47.085Z,87.7
2017-09-04T00:35:48.670Z,88.1
2017-09-04T00:36:50.099Z,88.1
2017-09-04T00:37:51.624Z,88.2
2017-09-04T00:38:53.205Z,88.6
2017-09-04T00:39:54.755Z,88.5
2017-09-04T00:40:56.328Z,88.6
2017-09-04T00:41:57.867Z,88.9
2017-09-04T00:42:59.392Z,88.5
2017-09-04T00:44:00.934Z,89.7
2017-09-04T00:45:02.514Z,89.5
2017-09-04T00:46:04.026Z,89.8
2017-09-04T00:47:05.549Z,88.7
2017-09-04T00:48:07.134Z,89.0
2017-09-04T00:49:08.651Z,89.6
2017-09-04T00:50:10.200Z,89.8
2017-09-04T00:51:11.726Z,90.3
2017-09-04T00:52:13.234Z,89.6
2017-09-04T00:53:14.738Z,89.8
2017-09-04T00:54:16.214Z,90.0
2017-09-04T00:55:17.751Z,90.6
2017-09-04T00:56:19.291Z,90.2
2017-09-04T00:57:20.809Z,90.5
2017-09-04T00:58:22.351Z,90.6
2017-09-04T00:59:23.894Z,90.4
2017-09-04T01:00:25.383Z,90.2
2017-09-04T01:01:29.021Z,90.3
2017-09-04T01:02:30.570Z,90.8
2017-09-04T01:03:32.039Z,90.6
2017-09-04T01:04:33.610Z,90.5
2017-09-04T01:05:35.079Z,90.5
2017-09-04T01:06:36.700Z,90.6
2017-09-04T01:07:38.211Z,90.7
2017-09-04T01:08:39.711Z,90.6
2017-09-04T01:09:41.292Z,90.4
2017-09-04T01:10:42.827Z,90.4
2017-09-04T01:11:44.434Z,90.6
2017-09-04T01:12:45.878Z,90.3
2017-09-04T01:13:47.405Z,90.2
2017-09-04T01:14:48.947Z,90.5
2017-09-04T01:15:50.509Z,90.6
2017-09-04T01:16:52.011Z,90.6
2017-09-04T01:17:53.556Z,90.7
2017-09-04T01:18:55.104Z,91.2
2017-09-04T01:19:56.677Z,91.4
2017-09-04T01:20:58.258Z,91.3
2017-09-04T01:21:59.859Z,91.8
2017-09-04T01:23:01.451Z,91.9
2017-09-04T01:24:02.979Z,91.8
2017-09-04T01:25:04.532Z,91.9
2017-09-04T01:26:06.043Z,92.0
2017-09-04T01:27:07.523Z,91.9
2017-09-04T01:28:09.140Z,91.8
2017-09-04T01:29:10.735Z,91.0
2017-09-04T01:30:12.342Z,91.6
2017-09-04T01:31:13.930Z,91.6
2017-09-04T01:32:15.481Z,92.0
2017-09-04T01:33:17.090Z,91.0
2017-09-04T01:34:18.627Z,91.2
2017-09-04T01:35:20.184Z,91.0
2017-09-04T01:36:21.684Z,91.6
2017-09-04T01:37:23.168Z,91.6
2017-09-04T01:38:24.723Z,91.8
2017-09-04T01:39:26.280Z,91.8
2017-09-04T01:40:27.777Z,91.7
2017-09-04T01:41:29.352Z,91.7
2017-09-04T01:42:30.929Z,91.7
2017-09-04T01:43:32.515Z,91.8
2017-09-04T01:44:34.049Z,91.9
2017-09-04T01:45:35.693Z,92.0
2017-09-04T01:46:37.184Z,91.9
2017-09-04T01:47:38.714Z,91.9
2017-09-04T01:48:40.319Z,91.9
2017-09-04T01:49:41.853Z,91.7
2017-09-04T01:50:43.421Z,91.4
2017-09-04T01:51:44.862Z,91.8
2017-09-04T01:52:46.399Z,92.0
2017-09-04T01:53:47.952Z,91.5
2017-09-04T01:54:49.534Z,91.7
2017-09-04T01:55:51.074Z,91.8
2017-09-04T01:56:52.602Z,91.7
2017-09-04T01:57:54.212Z,92.1
2017-09-04T01:58:55.726Z,91.7
2017-09-04T01:59:57.264Z,91.8
2017-09-04T02:00:58.761Z,92.1
2017-09-04T02:02:00.285Z,92.0
2017-09-04T02:03:01.811Z,91.6
2017-09-04T02:04:03.379Z,91.2
2017-09-04T02:05:04.990Z,91.3
2017-09-04T02:06:06.539Z,90.8
2017-09-04T02:07:08.062Z,90.1
2017-09-04T02:08:09.554Z,90.2
2017-09-04T02:09:11.123Z,90.2
2017-09-04T02:10:12.606Z,90.6
2017-09-04T02:11:14.183Z,90.1
2017-09-04T02:12:15.722Z,90.5
2017-09-04T02:13:17.250Z,90.2
2017-09-04T02:14:18.849Z,90.4
2017-09-04T02:15:20.415Z,90.1
2017-09-04T02:16:22.005Z,90.6
2017-09-04T02:17:23.541Z,90.9
2017-09-04T02:18:25.014Z,92.0
2017-09-04T02:19:26.561Z,92.0
2017-09-04T02:20:28.055Z,92.4
2017-09-04T02:21:29.592Z,91.7
2017-09-04T02:22:31.101Z,91.1
2017-09-04T02:23:32.637Z,90.8
2017-09-04T02:24:34.225Z,92.0
2017-09-04T02:25:35.743Z,92.4
2017-09-04T02:26:37.249Z,92.1
2017-09-04T02:27:38.796Z,92.1
2017-09-04T02:28:40.298Z,92.2
2017-09-04T02:29:41.850Z,92.2
2017-09-04T02:30:43.386Z,92.3
2017-09-04T02:31:44.876Z,92.2
2017-09-04T02:32:46.391Z,92.0
2017-09-04T02:33:47.898Z,92.6
2017-09-04T02:34:49.410Z,92.0
2017-09-04T02:35:50.947Z,92.6
2017-09-04T02:36:52.442Z,92.2
2017-09-04T02:37:53.983Z,92.2
2017-09-04T02:38:55.491Z,92.7
2017-09-04T02:39:57.014Z,92.6
2017-09-04T02:40:58.551Z,92.8
2017-09-04T02:42:00.090Z,92.8
2017-09-04T02:43:01.630Z,92.7
2017-09-04T02:44:03.191Z,92.6
2017-09-04T02:45:04.699Z,92.3
2017-09-04T02:46:06.304Z,92.3
2017-09-04T02:47:07.846Z,92.1
2017-09-04T02:48:09.479Z,92.6
2017-09-04T02:49:11.063Z,93.2
2017-09-04T02:50:12.523Z,92.4
2017-09-04T02:51:14.042Z,92.7
2017-09-04T02:52:15.564Z,92.2
2017-09-04T02:53:17.045Z,93.3
2017-09-04T02:54:18.565Z,92.7
2017-09-04T02:55:20.233Z,92.9
2017-09-04T02:56:21.851Z,93.1
2017-09-04T02:57:23.396Z,93.0
2017-09-04T02:58:24.932Z,93.1
2017-09-04T02:59:26.505Z,93.4
2017-09-04T03:00:28.041Z,93.1
2017-09-04T03:01:29.603Z,93.5
2017-09-04T03:02:31.309Z,93.5
2017-09-04T03:03:32.887Z,93.7
2017-09-04T03:04:34.488Z,93.5
2017-09-04T03:05:36.070Z,93.8
2017-09-04T03:06:37.564Z,93.7
2017-09-04T03:07:39.079Z,93.9
2017-09-04T03:08:40.596Z,93.7
2017-09-04T03:09:42.154Z,93.1
2017-09-04T03:10:43.697Z,93.7
2017-09-04T03:11:45.297Z,92.8
2017-09-04T03:12:46.781Z,93.1
2017-09-04T03:13:48.356Z,93.5
2017-09-04T03:14:49.940Z,93.6
2017-09-04T03:15:51.476Z,94.0
2017-09-04T03:16:52.984Z,93.7
2017-09-04T03:17:54.528Z,93.8
2017-09-04T03:18:56.051Z,93.5
2017-09-04T03:19:57.600Z,93.6
2017-09-04T03:20:59.186Z,94.4
2017-09-04T03:22:00.693Z,94.6
2017-09-04T03:23:02.233Z,94.6
2017-09-04T03:24:03.748Z,94.1
2017-09-04T03:25:05.308Z,93.9
2017-09-04T03:26:06.867Z,94.3
2017-09-04T03:27:08.384Z,93.8
2017-09-04T03:28:09.969Z,94.2
2017-09-04T03:29:11.491Z,94.3
2017-09-04T03:30:12.987Z,94.2
2017-09-04T03:31:14.549Z,93.9
2017-09-04T03:32:16.199Z,93.9
2017-09-04T03:33:17.734Z,94.5
2017-09-04T03:34:19.277Z,94.3
2017-09-04T03:35:20.858Z,94.4
2017-09-04T03:36:22.419Z,94.3
2017-09-04T03:37:23.904Z,94.4
2017-09-04T03:38:25.490Z,94.3
2017-09-04T03:39:27.011Z,94.3
2017-09-04T03:40:28.532Z,93.9
2017-09-04T03:41:30.095Z,93.7
2017-09-04T03:42:31.611Z,94.5
2017-09-04T03:43:33.239Z,93.9
2017-09-04T03:44:34.770Z,93.8
2017-09-04T03:45:36.263Z,93.9
2017-09-04T03:46:37.827Z,94.2
2017-09-04T03:47:39.385Z,94.1
2017-09-04T03:48:40.916Z,94.6
2017-09-04T03:49:42.437Z,95.0
2017-09-04T03:50:43.929Z,94.7
2017-09-04T03:51:45.464Z,95.1
2017-09-04T03:52:46.978Z,94.7
2017-09-04T03:53:48.557Z,94.7
2017-09-04T03:54:50.167Z,95.0
2017-09-04T03:55:51.707Z,94.6
2017-09-04T03:56:53.320Z,94.4
2017-09-04T03:57:54.836Z,95.1
2017-09-04T03:58:56.375Z,94.6
2017-09-04T03:59:57.969Z,95.1
2017-09-04T04:00:59.505Z,94.8
2017-09-04T04:02:01.014Z,95.1
2017-09-04T04:03:02.611Z,94.7
2017-09-04T04:04:04.236Z,94.9
2017-09-04T04:05:05.769Z,94.5
2017-09-04T04:06:07.339Z,94.3
2017-09-04T04:07:08.874Z,94.6
2017-09-04T04:08:10.397Z,94.3
2017-09-04T04:09:11.895Z,94.2
2017-09-04T04:10:13.499Z,94.0
2017-09-04T04:11:15.003Z,94.4
2017-09-04T04:12:16.606Z,94.4
2017-09-04T04:13:18.257Z,94.1
2017-09-04T04:14:19.987Z,94.1
2017-09-04T04:15:21.534Z,94.7
2017-09-04T04:16:23.117Z,94.9
2017-09-04T04:17:24.648Z,94.7
2017-09-04T04:18:26.193Z,95.4
2017-09-04T04:19:27.731Z,95.2
2017-09-04T04:20:29.256Z,95.2
2017-09-04T04:21:30.808Z,95.1
2017-09-04T04:22:32.368Z,95.0
2017-09-04T04:23:33.931Z,95.0
2017-09-04T04:24:35.519Z,95.3
2017-09-04T04:25:37.062Z,95.2
2017-09-04T04:26:38.671Z,94.9
2017-09-04T04:27:40.192Z,94.9
2017-09-04T04:28:41.742Z,94.7
2017-09-04T04:29:43.298Z,94.9
2017-09-04T04:30:44.814Z,95.2
2017-09-04T04:31:46.319Z,95.0
2017-09-04T04:32:47.870Z,94.6
2017-09-04T04:33:49.390Z,95.1
2017-09-04T04:34:50.921Z,94.3
2017-09-04T04:35:52.468Z,94.4
2017-09-04T04:36:54.076Z,94.8
2017-09-04T04:37:55.657Z,95.2
2017-09-04T04:38:57.198Z,94.7
2017-09-04T04:39:58.862Z,94.4
2017-09-04T04:41:00.437Z,95.1
2017-09-04T04:42:02.083Z,95.0
2017-09-04T04:43:03.727Z,94.9
2017-09-04T04:44:05.354Z,94.9
2017-09-04T04:45:06.946Z,94.8
2017-09-04T04:46:08.463Z,94.4
2017-09-04T04:47:10.088Z,95.0
2017-09-04T04:48:11.669Z,94.8
2017-09-04T04:49:13.224Z,94.5
2017-09-04T04:50:14.775Z,94.6
2017-09-04T04:51:16.307Z,94.9
2017-09-04T04:52:17.865Z,95.1
2017-09-04T04:53:19.481Z,94.7
2017-09-04T04:54:20.986Z,94.8
2017-09-04T04:55:22.643Z,94.3
2017-09-04T04:56:24.203Z,94.6
2017-09-04T04:57:25.687Z,94.8
2017-09-04T04:58:27.269Z,94.2
2017-09-04T04:59:28.755Z,94.3
2017-09-04T05:00:30.281Z,94.3
2017-09-04T05:01:31.941Z,94.3
2017-09-04T05:02:33.495Z,94.4
2017-09-04T05:03:35.022Z,94.2
2017-09-04T05:04:36.531Z,94.2
2017-09-04T05:05:38.154Z,93.8
2017-09-04T05:06:39.727Z,93.5
2017-09-04T05:07:41.227Z,93.5
2017-09-04T05:08:42.778Z,93.7
2017-09-04T05:09:44.347Z,94.2
2017-09-04T05:10:46.138Z,93.5
2017-09-04T05:11:47.655Z,93.8
2017-09-04T05:12:49.206Z,93.8
2017-09-04T05:13:50.751Z,93.7
2017-09-04T05:14:52.272Z,93.9
2017-09-04T05:15:53.816Z,93.8
2017-09-04T05:16:55.380Z,93.7
2017-09-04T05:17:56.978Z,93.6
2017-09-04T05:18:58.578Z,93.6
2017-09-04T05:20:00.108Z,93.7
2017-09-04T05:21:01.620Z,93.4
2017-09-04T05:22:03.351Z,93.7
2017-09-04T05:23:04.905Z,93.8
2017-09-04T05:24:06.450Z,94.0
2017-09-04T05:25:07.964Z,94.2
2017-09-04T05:26:09.542Z,94.1
2017-09-04T05:27:11.025Z,93.8
2017-09-04T05:28:12.558Z,93.8
2017-09-04T05:29:14.072Z,93.6
2017-09-04T05:30:15.615Z,93.8
2017-09-04T05:31:17.194Z,93.4
2017-09-04T05:32:18.711Z,93.4
2017-09-04T05:33:20.297Z,93.3
2017-09-04T05:34:21.894Z,92.9
2017-09-04T05:35:23.487Z,93.0
2017-09-04T05:36:25.127Z,93.0
2017-09-04T05:37:26.746Z,92.1
2017-09-04T05:38:28.301Z,92.6
2017-09-04T05:39:29.852Z,92.6
2017-09-04T05:40:31.394Z,92.2
2017-09-04T05:41:32.955Z,92.6
2017-09-04T05:42:34.674Z,91.8
2017-09-04T05:43:36.214Z,91.6
2017-09-04T05:44:37.730Z,90.9
2017-09-04T05:45:39.385Z,91.5
2017-09-04T05:46:40.941Z,91.5
2017-09-04T05:47:42.503Z,91.1
2017-09-04T05:48:44.092Z,91.1
2017-09-04T05:49:45.690Z,91.6
2017-09-04T05:50:47.238Z,90.9
2017-09-04T05:51:48.737Z,90.7
2017-09-04T05:52:50.303Z,90.4
2017-09-04T05:53:51.817Z,90.4
2017-09-04T05:54:53.435Z,89.4
2017-09-04T05:55:55.012Z,89.7
2017-09-04T05:56:56.628Z,89.6
2017-09-04T05:57:58.223Z,89.6
2017-09-04T05:58:59.756Z,89.2
2017-09-04T06:00:01.299Z,88.2
2017-09-04T06:01:02.872Z,87.7
2017-09-04T06:02:04.429Z,87.7
2017-09-04T06:03:05.986Z,87.7
2017-09-04T06:04:07.556Z,87.7
2017-09-04T06:05:09.168Z,87.9
2017-09-04T06:06:10.740Z,88.0
2017-09-04T06:07:12.331Z,87.3
2017-09-04T06:08:13.864Z,87.0
2017-09-04T06:09:15.471Z,87.3
2017-09-04T06:10:17.051Z,87.0
2017-09-04T06:11:18.556Z,86.8
2017-09-04T06:12:20.092Z,86.2
2017-09-04T06:13:21.633Z,86.2
2017-09-04T06:14:23.200Z,86.5
2017-09-04T06:15:24.795Z,86.4
2017-09-04T06:16:26.297Z,86.1
2017-09-04T06:17:27.892Z,86.1
2017-09-04T06:18:29.382Z,86.0
2017-09-04T06:19:30.946Z,85.8
2017-09-04T06:20:32.509Z,85.8
2017-09-04T06:21:34.241Z,85.8
2017-09-04T06:22:36.790Z,85.9
2017-09-04T06:23:38.424Z,86.0
2017-09-04T06:24:40.112Z,85.4
2017-09-04T06:25:41.766Z,85.8
2017-09-04T06:26:43.440Z,85.8
2017-09-04T06:27:45.232Z,85.4
2017-09-04T06:28:46.804Z,85.4
2017-09-04T06:29:48.437Z,84.3
2017-09-04T06:30:50.013Z,83.7
2017-09-04T06:31:51.628Z,83.0
2017-09-04T06:32:53.184Z,81.9
2017-09-04T06:33:54.737Z,81.9
2017-09-04T06:34:56.463Z,81.1
2017-09-04T06:35:58.126Z,80.5
2017-09-04T06:36:59.669Z,79.7
2017-09-04T06:38:01.221Z,79.0
2017-09-04T06:39:02.752Z,78.1
2017-09-04T06:40:04.219Z,77.1
2017-09-04T06:41:05.820Z,77.7
2017-09-04T06:42:07.339Z,78.2
2017-09-04T06:43:08.983Z,78.9
2017-09-04T06:44:10.595Z,78.9
2017-09-04T06:45:12.095Z,78.3
2017-09-04T06:46:13.952Z,77.1
2017-09-04T06:47:15.500Z,77.4
2017-09-04T06:48:17.309Z,78.1
2017-09-04T06:49:18.834Z,78.2
2017-09-04T06:50:20.325Z,76.9
2017-09-04T06:51:21.826Z,76.0
2017-09-04T06:52:23.366Z,75.2
2017-09-04T06:53:24.848Z,74.4
2017-09-04T06:54:26.392Z,75.0
2017-09-04T06:55:27.970Z,73.4
2017-09-04T06:56:29.580Z,73.0
2017-09-04T06:57:31.321Z,72.4
2017-09-04T06:58:32.901Z,72.3
2017-09-04T06:59:34.498Z,72.2
2017-09-04T07:00:36.097Z,71.4
2017-09-04T07:01:37.928Z,71.4
2017-09-04T07:02:40.462Z,71.5
2017-09-04T07:03:42.055Z,70.9
2017-09-04T07:04:43.727Z,70.9
2017-09-04T07:05:45.332Z,72.2
2017-09-04T07:06:46.816Z,71.2
2017-09-04T07:07:48.582Z,70.4
2017-09-04T07:08:50.279Z,69.9
2017-09-04T07:09:52.961Z,69.5
2017-09-04T07:10:55.490Z,69.0
2017-09-04T07:11:57.066Z,69.4
2017-09-04T07:12:59.471Z,68.7
2017-09-04T07:14:01.227Z,68.6
2017-09-04T07:15:03.208Z,69.1
2017-09-04T07:16:06.531Z,69.4
2017-09-04T07:17:09.330Z,69.2
2017-09-04T07:18:39.415Z,69.3
2017-09-04T07:20:01.732Z,68.6
2017-09-04T07:21:07.632Z,67.8
2017-09-04T07:22:11.687Z,68.0
2017-09-04T07:23:13.206Z,68.0
2017-09-04T07:24:15.532Z,67.5
2017-09-04T07:25:17.309Z,67.2
2017-09-04T07:26:19.425Z,66.7
2017-09-04T07:27:21.070Z,66.5
2017-09-04T07:28:24.741Z,67.8
2017-09-04T07:29:26.341Z,68.7
2017-09-04T07:30:29.124Z,68.8
2017-09-04T07:31:30.983Z,67.9
2017-09-04T07:32:32.528Z,67.4
2017-09-04T07:33:34.187Z,67.2
2017-09-04T07:34:35.989Z,66.4
2017-09-04T07:35:37.551Z,66.8
2017-09-04T07:36:39.156Z,66.3
2017-09-04T07:37:40.764Z,66.0
2017-09-04T07:38:42.370Z,65.8
2017-09-04T07:39:43.979Z,65.8
2017-09-04T07:40:45.548Z,64.9
2017-09-04T07:41:47.187Z,65.2
2017-09-04T07:42:48.754Z,64.1
2017-09-04T07:43:50.400Z,64.1
2017-09-04T07:44:52.846Z,65.5
2017-09-04T07:45:54.701Z,65.1
2017-09-04T07:46:56.381Z,64.4
2017-09-04T07:47:58.001Z,63.8
2017-09-04T07:48:59.634Z,63.8
2017-09-04T07:50:01.430Z,63.5
2017-09-04T07:51:03.221Z,63.4
2017-09-04T07:52:04.858Z,63.1
2017-09-04T07:53:06.461Z,63.1
2017-09-04T07:54:08.090Z,61.9
2017-09-04T07:55:09.671Z,62.6
2017-09-04T07:56:11.855Z,63.5
2017-09-04T07:57:14.292Z,64.0
2017-09-04T07:58:15.923Z,64.8
2017-09-04T07:59:17.798Z,64.8
2017-09-04T08:00:19.659Z,63.4
2017-09-04T08:01:23.710Z,62.6
2017-09-04T08:02:25.849Z,62.8
2017-09-04T08:03:27.995Z,62.9
2017-09-04T08:04:29.964Z,63.9
2017-09-04T08:05:32.079Z,64.2
2017-09-04T08:06:34.045Z,64.5
2017-09-04T08:07:35.838Z,62.5
2017-09-04T08:08:38.480Z,62.2
2017-09-04T08:09:40.653Z,61.6
2017-09-04T08:10:42.929Z,61.5
2017-09-04T08:11:44.935Z,61.5
2017-09-04T08:12:46.674Z,60.7
2017-09-04T08:13:49.751Z,60.1
2017-09-04T08:15:01.348Z,60.0
2017-09-04T08:16:07.534Z,60.0
2017-09-04T08:17:09.788Z,59.3
2017-09-04T08:18:19.702Z,58.5
2017-09-04T08:19:22.506Z,58.3
2017-09-04T08:20:24.615Z,58.3
2017-09-04T08:21:26.724Z,58.4
2017-09-04T08:22:28.565Z,56.9
2017-09-04T08:23:30.812Z,57.1
2017-09-04T08:24:32.718Z,56.5
2017-09-04T08:25:34.383Z,56.5
2017-09-04T08:26:36.301Z,57.0
2017-09-04T08:27:38.083Z,56.4
2017-09-04T08:28:39.725Z,56.1
2017-09-04T08:29:41.325Z,55.9
2017-09-04T08:30:42.900Z,56.0
2017-09-04T08:31:44.401Z,55.7
2017-09-04T08:32:45.974Z,55.5
2017-09-04T08:33:47.558Z,54.5
2017-09-04T08:34:49.482Z,54.1
2017-09-04T08:35:51.529Z,53.7
2017-09-04T08:36:53.061Z,54.6
2017-09-04T08:37:55.072Z,53.9
2017-09-04T08:38:57.331Z,53.4
2017-09-04T08:39:59.549Z,53.0
2017-09-04T08:41:01.623Z,52.7
2017-09-04T08:42:03.183Z,52.1
2017-09-04T08:43:04.745Z,51.4
2017-09-04T08:44:06.284Z,51.1
2017-09-04T08:45:07.858Z,50.3
2017-09-04T08:46:09.683Z,50.1
2017-09-04T08:47:11.889Z,50.3
2017-09-04T08:48:14.211Z,50.8
2017-09-04T08:49:16.344Z,50.3
2017-09-04T08:50:17.917Z,50.5
2017-09-04T08:51:19.537Z,50.7
2017-09-04T08:52:21.573Z,50.0
2017-09-04T08:53:23.363Z,49.8
2017-09-04T08:54:25.119Z,50.2
2017-09-04T08:55:26.888Z,49.7
2017-09-04T08:56:28.735Z,48.8
2017-09-04T08:57:30.343Z,49.5
2017-09-04T08:58:32.064Z,49.7
2017-09-04T08:59:33.840Z,49.0
2017-09-04T09:00:51.108Z,49.6
2017-09-04T09:01:52.700Z,50.5
2017-09-04T09:02:55.215Z,51.3
2017-09-04T09:03:57.640Z,49.7
2017-09-04T09:05:02.849Z,49.6
2017-09-04T09:06:05.486Z,48.3
2017-09-04T09:07:07.107Z,47.2
2017-09-04T09:08:08.964Z,46.6
2017-09-04T09:09:10.679Z,46.6
2017-09-04T09:10:12.212Z,45.9
2017-09-04T09:11:14.086Z,45.6
2017-09-04T09:12:15.679Z,45.3
2017-09-04T09:13:17.180Z,45.1
2017-09-04T09:14:18.644Z,45.7
2017-09-04T09:15:20.182Z,45.3
2017-09-04T09:16:21.899Z,44.5
2017-09-04T09:17:23.727Z,44.3
2017-09-04T09:18:25.275Z,44.4
2017-09-04T09:19:26.971Z,43.2
2017-09-04T09:20:28.549Z,43.5
2017-09-04T09:21:30.132Z,45.8
2017-09-04T09:22:31.700Z,48.3
2017-09-04T09:23:33.215Z,46.9
2017-09-04T09:24:34.809Z,47.5
2017-09-04T09:25:36.335Z,46.4
2017-09-04T09:26:37.855Z,46.6
2017-09-04T09:27:39.415Z,46.2
2017-09-04T09:28:40.943Z,45.6
2017-09-04T09:29:42.414Z,46.2
2017-09-04T09:30:43.966Z,45.6
2017-09-04T09:31:45.830Z,46.8
2017-09-04T09:32:47.388Z,45.6
2017-09-04T09:33:49.039Z,44.9
2017-09-04T09:34:50.658Z,42.9
2017-09-04T09:35:52.205Z,40.8
2017-09-04T09:36:53.901Z,40.6
2017-09-04T09:37:55.376Z,39.7
2017-09-04T09:38:59.491Z,39.3
2017-09-04T09:40:02.349Z,39.7
2017-09-04T09:41:04.854Z,42.2
2017-09-04T09:42:07.946Z,43.6
2017-09-04T09:43:11.390Z,42.6
2017-09-04T09:44:13.062Z,41.8
2017-09-04T09:45:14.658Z,41.2
2017-09-04T09:46:16.193Z,43.3
2017-09-04T09:47:18.280Z,41.9
2017-09-04T09:48:19.926Z,40.6
2017-09-04T09:49:21.745Z,40.6
2017-09-04T09:50:23.498Z,41.4
2017-09-04T09:51:25.273Z,39.9
2017-09-04T09:52:27.022Z,39.9
2017-09-04T09:53:28.735Z,39.5
2017-09-04T09:54:30.661Z,40.5
2017-09-04T09:55:32.589Z,41.4
2017-09-04T09:56:34.385Z,42.0
2017-09-04T09:57:36.239Z,42.7
2017-09-04T09:58:38.126Z,43.2
2017-09-04T09:59:39.992Z,43.2
2017-09-04T10:00:41.968Z,43.2
2017-09-04T10:01:43.858Z,44.0
2017-09-04T10:02:45.427Z,43.5
2017-09-04T10:03:46.971Z,42.8
2017-09-04T10:04:48.515Z,42.0
2017-09-04T10:05:50.001Z,39.6
2017-09-04T10:06:51.514Z,39.0
2017-09-04T10:07:52.967Z,38.2
2017-09-04T10:08:54.466Z,37.8
2017-09-04T10:09:56.016Z,37.8
2017-09-04T10:10:57.535Z,37.2
2017-09-04T10:11:59.122Z,37.4
2017-09-04T10:13:00.705Z,36.2
2017-09-04T10:14:02.251Z,36.2
2017-09-04T10:15:03.774Z,35.9
2017-09-04T10:16:05.343Z,34.7
2017-09-04T10:17:06.924Z,34.8
2017-09-04T10:18:08.476Z,34.7
2017-09-04T10:19:10.065Z,33.6
2017-09-04T10:20:11.645Z,34.6
2017-09-04T10:21:13.169Z,35.9
2017-09-04T10:22:14.716Z,37.0
2017-09-04T10:23:16.528Z,37.5
2017-09-04T10:24:18.144Z,37.6
2017-09-04T10:25:19.649Z,39.2
2017-09-04T10:26:21.186Z,41.4
2017-09-04T10:27:22.772Z,43.4
2017-09-04T10:28:24.306Z,43.2
2017-09-04T10:29:25.873Z,44.5
2017-09-04T10:30:27.423Z,45.3
2017-09-04T10:31:28.931Z,45.1
2017-09-04T10:32:30.438Z,46.3
2017-09-04T10:33:32.052Z,45.8
2017-09-04T10:34:33.527Z,46.1
2017-09-04T10:35:35.092Z,45.5
2017-09-04T10:36:36.616Z,45.3
2017-09-04T10:37:38.135Z,46.0
2017-09-04T10:38:39.721Z,45.9
2017-09-04T10:39:41.258Z,46.1
2017-09-04T10:40:42.802Z,46.7
2017-09-04T10:41:44.350Z,46.6
2017-09-04T10:42:45.849Z,46.9
2017-09-04T10:43:47.374Z,46.9
2017-09-04T10:44:48.936Z,47.6
2017-09-04T10:45:50.441Z,47.5
2017-09-04T10:46:51.952Z,47.8
2017-09-04T10:47:53.467Z,47.8
2017-09-04T10:48:55.009Z,48.2
2017-09-04T10:49:56.506Z,48.4
2017-09-04T10:50:58.075Z,47.0
2017-09-04T10:51:59.560Z,45.5
2017-09-04T10:53:01.087Z,45.6
2017-09-04T10:54:02.649Z,40.8
2017-09-04T10:55:04.176Z,36.1
2017-09-04T10:56:05.737Z,32.8
2017-09-04T10:57:07.230Z,30.8
2017-09-04T10:58:08.785Z,29.1
2017-09-04T10:59:10.309Z,26.9
2017-09-04T11:00:11.872Z,25.8
2017-09-04T11:01:13.407Z,25.3
2017-09-04T11:02:14.904Z,23.9
2017-09-04T11:03:16.488Z,24.2
2017-09-04T11:04:17.992Z,21.9
2017-09-04T11:05:19.538Z,22.0
2017-09-04T11:06:21.120Z,20.9
2017-09-04T11:07:22.660Z,19.4
2017-09-04T11:08:24.184Z,18.8
2017-09-04T11:09:25.783Z,19.8
2017-09-04T11:10:27.328Z,23.2
2017-09-04T11:11:28.884Z,23.5
2017-09-04T11:12:30.468Z,24.7
2017-09-04T11:13:32.053Z,28.6
2017-09-04T11:14:33.524Z,26.9
2017-09-04T11:15:35.059Z,25.3
2017-09-04T11:16:36.554Z,23.0
2017-09-04T11:17:38.092Z,22.9
2017-09-04T11:18:39.562Z,23.5
2017-09-04T11:19:41.093Z,22.6
2017-09-04T11:20:42.696Z,22.8
2017-09-04T11:21:44.221Z,22.3
2017-09-04T11:22:45.739Z,21.4
2017-09-04T11:23:47.329Z,19.8
2017-09-04T11:24:48.852Z,19.6
2017-09-04T11:25:50.542Z,18.3
2017-09-04T11:26:52.063Z,18.5
2017-09-04T11:27:53.616Z,18.4
2017-09-04T11:28:55.140Z,20.6
2017-09-04T11:29:56.675Z,22.0
2017-09-04T11:30:58.175Z,22.6
2017-09-04T11:31:59.693Z,23.6
2017-09-04T11:33:01.152Z,22.8
2017-09-04T11:34:02.649Z,22.9
2017-09-04T11:35:04.095Z,23.5
2017-09-04T11:36:05.551Z,22.2
2017-09-04T11:37:07.068Z,21.4
2017-09-04T11:38:08.522Z,19.5
2017-09-04T11:39:10.069Z,19.1
2017-09-04T11:40:11.591Z,21.4
2017-09-04T11:41:13.146Z,22.8
2017-09-04T11:42:14.689Z,23.5
2017-09-04T11:43:16.184Z,24.8
2017-09-04T11:44:17.754Z,25.9
2017-09-04T11:45:19.340Z,29.7
2017-09-04T11:46:20.849Z,27.7
2017-09-04T11:47:22.364Z,28.0
2017-09-04T11:48:23.915Z,25.6
2017-09-04T11:49:25.478Z,23.7
2017-09-04T11:50:26.977Z,23.0
2017-09-04T11:51:28.499Z,22.5
2017-09-04T11:52:29.962Z,22.4
2017-09-04T11:53:31.427Z,22.1
2017-09-04T11:54:32.932Z,23.1
2017-09-04T11:55:34.474Z,21.7
2017-09-04T11:56:36.251Z,19.6
2017-09-04T11:57:37.684Z,19.4
2017-09-04T11:58:39.208Z,19.8
2017-09-04T11:59:40.677Z,19.9
2017-09-04T12:00:42.186Z,20.0
2017-09-04T12:01:43.745Z,19.7
2017-09-04T12:02:45.400Z,19.2
2017-09-04T12:03:46.909Z,19.8
2017-09-04T12:04:48.462Z,19.7
2017-09-04T12:05:50.045Z,18.8
2017-09-04T12:06:51.640Z,16.7
2017-09-04T12:07:53.230Z,17.3
2017-09-04T12:08:54.726Z,18.5
2017-09-04T12:09:56.192Z,19.7
2017-09-04T12:10:57.702Z,19.3
2017-09-04T12:11:59.186Z,19.0
2017-09-04T12:13:00.785Z,19.8
2017-09-04T12:14:02.367Z,21.5
2017-09-04T12:15:04.480Z,24.6
2017-09-04T12:16:06.005Z,27.6
2017-09-04T12:17:07.934Z,31.5
2017-09-04T12:18:09.949Z,31.3
2017-09-04T12:19:13.361Z,32.3
2017-09-04T12:20:15.011Z,32.4
2017-09-04T12:21:18.434Z,28.1
2017-09-04T12:23:14.401Z,24.2
2017-09-04T12:24:16.625Z,23.8
2017-09-04T12:25:49.100Z,23.9
2017-09-04T12:32:13.323Z,26.9
2017-09-04T12:36:13.761Z,25.1
2017-09-04T12:54:30.566Z,23.1
2017-09-04T12:55:32.821Z,20.2
2017-09-04T12:56:34.809Z,19.8
2017-09-04T12:57:38.322Z,20.2
2017-09-04T12:58:40.099Z,20.2
2017-09-04T12:59:42.355Z,19.1
2017-09-04T13:00:45.220Z,17.2
2017-09-04T13:01:47.373Z,17.8
2017-09-04T13:02:49.356Z,17.2
2017-09-04T13:03:51.606Z,17.6
2017-09-04T13:04:53.411Z,17.9
2017-09-04T13:05:55.542Z,20.7
2017-09-04T13:06:57.510Z,23.0
2017-09-04T13:08:00.389Z,22.0
2017-09-04T13:09:02.302Z,20.7
2017-09-04T13:10:05.180Z,19.7
2017-09-04T13:11:07.236Z,19.1
2017-09-04T13:12:10.056Z,19.7
2017-09-04T13:13:11.665Z,19.6
2017-09-04T13:14:13.823Z,19.9
2017-09-04T13:16:14.503Z,19.2
2017-09-04T13:17:21.172Z,18.5
2017-09-04T13:18:24.308Z,18.3
2017-09-04T13:19:26.349Z,17.9
2017-09-04T13:20:27.950Z,18.1
2017-09-04T13:21:29.534Z,18.2
2017-09-04T13:22:31.103Z,18.6
2017-09-04T13:23:32.650Z,19.7
2017-09-04T13:24:34.188Z,18.6
2017-09-04T13:25:36.875Z,18.8
2017-09-04T13:26:38.376Z,18.4
2017-09-04T13:27:39.926Z,18.6
2017-09-04T13:28:41.491Z,20.3
2017-09-04T13:29:43.006Z,20.5
2017-09-04T13:30:44.701Z,20.5
2017-09-04T13:31:46.292Z,21.0
2017-09-04T13:32:47.725Z,19.9
2017-09-04T13:33:49.313Z,19.4
2017-09-04T13:34:50.948Z,17.7
2017-09-04T13:35:52.464Z,17.7
2017-09-04T13:36:54.040Z,17.9
2017-09-04T13:37:55.620Z,18.8
2017-09-04T13:38:58.395Z,18.7
2017-09-04T13:40:00.253Z,19.1
2017-09-04T13:41:01.828Z,19.6
2017-09-04T13:42:03.465Z,19.7
2017-09-04T13:43:05.078Z,20.1
2017-09-04T13:44:06.682Z,20.1
2017-09-04T13:45:08.336Z,19.4
2017-09-04T13:46:09.948Z,17.9
2017-09-04T13:47:11.441Z,16.5
2017-09-04T13:48:13.986Z,16.7
2017-09-04T13:49:15.541Z,16.5
2017-09-04T13:50:17.089Z,17.3
2017-09-04T13:51:18.617Z,15.2
2017-09-04T13:52:20.102Z,15.0
2017-09-04T13:53:21.812Z,15.6
2017-09-04T13:54:23.356Z,17.3
2017-09-04T13:55:24.984Z,19.6
2017-09-04T13:56:26.580Z,21.3
2017-09-04T13:57:28.556Z,23.7
2017-09-04T13:58:30.355Z,26.2
2017-09-04T13:59:31.895Z,24.6
2017-09-04T14:00:33.563Z,23.5
2017-09-04T14:01:35.386Z,22.3
2017-09-04T14:02:37.011Z,21.9
2017-09-04T14:03:38.548Z,22.1
2017-09-04T14:04:40.108Z,21.6
2017-09-04T14:05:41.679Z,21.6
2017-09-04T14:06:43.265Z,20.1
2017-09-04T14:07:44.854Z,19.9
2017-09-04T14:08:46.374Z,18.5
2017-09-04T14:09:47.987Z,18.4
2017-09-04T14:10:49.542Z,19.0